LIMLLFKC

Guest
Details From LIML - Milano Linate
To LFKC - St Catherine
Flight Number -
Tags Generated
Created
Modified
Stats Distance 176 nm / 327 km
Max Altitude 0 ft / 0 m
Waypoints 3
Social Downloads 1
Likes 0
Share VATSIM

Download

Looking for another format? Having issues loading an existing format? Contact us
Advertisement - Login to hide

Notes

Generated

Route

LIML MAPTB LFKC

ID Type Via Altitude Latitude Longitude Leg Dist Tot Dist Heading (true) Name
O LIML APT - 0 ft / 0 m 45.45804˚ 9.26826˚ - 0 nm - -
MAPTB FIX - 0 ft / 0 m 42.60036˚ 8.79265˚ 172 nm 172 nm 187° / 187° -
O LFKC APT - 0 ft / 0 m 42.54117˚ 8.79283˚ 3 nm 176 nm 180° / 180° -

Altitude Profile

Advertisement - Login to hide

Weather


0- 5 10 15 20 25 30 35+ Temperature / ° C

Clouds and Precipitation
Forecast for 2018-05-26 18:00 UTC. Updated 3 hours ago

Ground ~20,000 ft ~40,000 ft Winds

LIML

Details ICAO LIML (LIN)
Name Milano Linate
Region Italy
Timezone Europe/Rome (UTC+2.0)
Stats Elevation 353 ft / 108 m (AMSL)
Location 45.450302° 9.272801°
Runways 2
Magnetic Variation 2.552° E

METAR

LIML 261950Z 18003KT CAVOK 24/17 Q1018 NOSIG

Decode

TAF

TAF LIML 261700Z 2618/2718 VRB05KT 9999 SCT030 SCT060 TEMPO 2618/2621 SHRA TEMPO 2703/2708 TSRA TEMPO 2715/2718 TSRA

Decode

Departure Runways

ID Width Length Bearing (true) Bearing (mag) Surface Threshold Offset Overrun Length
17 72 ft / 22 m 1,975 ft / 602 m 175.64° 173.09° Asphalt 200 ft / 61 m 0 ft / 0 m
18 197 ft / 60 m 8,017 ft / 2,443 m 175.67° 173.12° Asphalt 0 ft / 0 m 190 ft / 58 m
35 72 ft / 22 m 1,975 ft / 602 m 355.64° 353.09° Asphalt 200 ft / 61 m 0 ft / 0 m
36 197 ft / 60 m 8,017 ft / 2,443 m 355.68° 353.13° Asphalt 0 ft / 0 m 980 ft / 299 m

LFKC

Details ICAO LFKC (CLY)
Name St Catherine
Region France
Timezone Europe/Paris (UTC+2.0)
Stats Elevation 208 ft / 63 m (AMSL)
Location 42.530762° 8.792925°
Runways 1
Magnetic Variation 2.390° E

METAR

LFKC 262000Z AUTO 11002KT CAVOK 21/18 Q1017 NOSIG

Decode

TAF

TAF LFKC 261400Z 2615/2715 VRB05KT CAVOK TEMPO 2615/2616 34006KT TEMPO 2618/2706 20006KT TEMPO 2707/2715 36008KT TX27/2713Z TN17/2704Z

Decode

Destination Runways

ID Width Length Bearing (true) Bearing (mag) Surface Threshold Offset Overrun Length
18 131 ft / 40 m 7,596 ft / 2,315 m 179.60° 177.21° Concrete 0 ft / 0 m 0 ft / 0 m
36 131 ft / 40 m 7,596 ft / 2,315 m 359.60° 357.21° Concrete 656 ft / 200 m 0 ft / 0 m

Approach Navaids

Runway Type Ident Frequency Range Bearing (true) Bearing (mag) Slope Elevation
18 Localiser CLI 109.50 MHz 18 nm / 33 km 179.62° 177.23° - 230 ft / 70 m (AMSL)
18 DME CLI 109.50 MHz 18 nm / 33 km - - - 230 ft / 70 m (AMSL)

Popular Alternatives